Main page
METAR-TAF:

METAR-TAF

Airports :

Oslo Airport. Gardermoen

Oslo, Norway

latitude: 60-12N, longitude: 011-05E, elevation: 208 m

Current weather observation

The report was made 23 minutes ago, at 22:50 UTC
Wind 4 kt from the North/Northwest
Temperature -11°C
Humidity 92%
Pressure 1006 hPa
Visibility 10 km or more
no clouds below 1500 m and no cumulonimbus

METAR: ENGM 272250Z 34004KT CAVOK M11/M12 Q1006

Time: 00:13 (23:13 UTC)

Forecast

Forecast valid from 27 at 18 UTC to 28 at 18 UTC
Wind 3 kt from the North
Visibility 10 km or more
Broken clouds at a height of 2500 ft
Probability 30%
from 28 at 00 UTC to 28 at 12 UTC
Visibility: 2000 m
Broken clouds at a height of 200 ft
patches of fog

TAF: ENGM 2718/2818 36003KT 9999 BKN025 PROB30 2800/2812 2000 BCFG BKN002

Weather observations and forecasts of more than 4000 airports (METAR and TAF reports).

The available stations are represented by yellow and red dots on the map.

Hover mouse over dot to see the name of the station.

Then click to see weather observations and forecasts.

To change the map : click on the green buttons with a black cross to zoom in, on the green button with a dash to zoom out, or on the green arrows for adjacent maps.


METAR-TAF: